createdAt,value
2019-04-13T00:02:17.275Z,2.25
2019-04-13T00:05:39.838Z,2.45
2019-04-13T00:08:43.354Z,2.20
2019-04-13T00:12:10.187Z,2.00
2019-04-13T00:15:16.792Z,2.42
2019-04-13T00:18:20.263Z,2.25
2019-04-13T00:21:23.798Z,2.17
2019-04-13T00:24:27.287Z,2.00
2019-04-13T00:27:30.712Z,2.10
2019-04-13T00:30:34.282Z,2.33
2019-04-13T00:33:37.761Z,2.27
2019-04-13T00:36:41.287Z,2.52
2019-04-13T00:39:45.798Z,2.10
2019-04-13T00:42:49.311Z,2.40
2019-04-13T00:45:52.815Z,2.17
2019-04-13T00:48:56.304Z,2.20
2019-04-13T00:51:59.759Z,2.65
2019-04-13T00:55:03.204Z,2.30
2019-04-13T00:58:06.801Z,2.35
2019-04-13T01:01:11.349Z,2.00
2019-04-13T01:04:14.834Z,2.25
2019-04-13T01:07:18.333Z,2.50
2019-04-13T01:10:21.831Z,2.25
2019-04-13T01:13:25.337Z,2.20
2019-04-13T01:16:28.846Z,2.27
2019-04-13T01:19:33.374Z,2.58
2019-04-13T01:22:36.861Z,2.30
2019-04-13T01:25:41.413Z,2.33
2019-04-13T01:28:44.907Z,2.20
2019-04-13T01:31:48.406Z,2.22
2019-04-13T01:34:51.899Z,2.27
2019-04-13T01:37:55.401Z,2.45
2019-04-13T01:40:59.942Z,2.40
2019-04-13T01:44:03.416Z,2.40
2019-04-13T01:47:07.943Z,2.20
2019-04-13T01:50:11.443Z,2.45
2019-04-13T01:53:14.940Z,2.45
2019-04-13T01:56:18.477Z,2.15
2019-04-13T01:59:23.536Z,2.05
2019-04-13T02:02:44.594Z,2.37
2019-04-13T02:06:13.367Z,2.50
2019-04-13T02:09:23.838Z,2.47
2019-04-13T02:12:27.370Z,2.40
2019-04-13T02:15:30.900Z,2.30
2019-04-13T02:18:34.350Z,2.50
2019-04-13T02:21:37.863Z,2.40
2019-04-13T02:24:41.270Z,2.65
2019-04-13T02:27:44.884Z,2.55
2019-04-13T02:30:48.362Z,2.35
2019-04-13T02:33:51.891Z,2.45
2019-04-13T02:36:55.356Z,2.90
2019-04-13T02:39:58.874Z,2.47
2019-04-13T02:43:03.392Z,2.60
2019-04-13T02:46:06.897Z,2.60
2019-04-13T02:49:10.450Z,2.60
2019-04-13T02:52:13.895Z,2.55
2019-04-13T02:55:17.438Z,2.70
2019-04-13T02:58:20.895Z,2.75
2019-04-13T03:01:24.306Z,2.72
2019-04-13T03:04:27.901Z,2.83
2019-04-13T03:07:31.325Z,2.90
2019-04-13T03:10:34.750Z,2.72
2019-04-13T03:13:38.193Z,2.80
2019-04-13T03:16:59.208Z,2.70
2019-04-13T03:20:06.154Z,2.50
2019-04-13T03:23:09.564Z,2.83
2019-04-13T03:26:13.000Z,2.80
2019-04-13T03:29:16.591Z,3.02
2019-04-13T03:32:21.145Z,2.83
2019-04-13T03:35:24.646Z,2.80
2019-04-13T03:38:29.145Z,3.00
2019-04-13T03:41:32.681Z,2.90
2019-04-13T03:44:37.167Z,3.10
2019-04-13T03:47:40.658Z,3.00
2019-04-13T03:50:44.173Z,3.17
2019-04-13T03:53:47.677Z,3.12
2019-04-13T03:56:51.187Z,3.08
2019-04-13T03:59:54.679Z,2.98
2019-04-13T04:02:58.166Z,2.90
2019-04-13T04:06:11.143Z,3.17
2019-04-13T04:09:07.536Z,3.30
2019-04-13T04:12:10.949Z,3.17
2019-04-13T04:15:14.431Z,3.02
2019-04-13T04:18:17.929Z,3.25
2019-04-13T04:21:23.476Z,3.42
2019-04-13T04:24:26.996Z,3.20
2019-04-13T04:27:30.487Z,3.02
2019-04-13T04:30:33.994Z,3.20
2019-04-13T04:33:37.502Z,3.30
2019-04-13T04:36:40.992Z,3.60
2019-04-13T04:39:44.500Z,3.50
2019-04-13T04:42:47.991Z,3.30
2019-04-13T04:45:51.516Z,3.65
2019-04-13T04:48:54.998Z,3.35
2019-04-13T04:51:58.495Z,3.70
2019-04-13T04:55:01.996Z,3.30
2019-04-13T04:58:05.396Z,3.75
2019-04-13T05:01:09.091Z,3.33
2019-04-13T05:04:12.703Z,3.17
2019-04-13T05:07:16.235Z,3.58
2019-04-13T05:10:20.726Z,3.62
2019-04-13T05:13:24.249Z,3.10
2019-04-13T05:16:27.752Z,3.67
2019-04-13T05:19:32.264Z,3.25
2019-04-13T05:22:35.771Z,3.60
2019-04-13T05:25:39.264Z,3.20
2019-04-13T05:28:42.767Z,3.42
2019-04-13T05:31:46.272Z,3.77
2019-04-13T05:34:49.761Z,3.72
2019-04-13T05:37:53.265Z,3.90
2019-04-13T05:40:56.766Z,3.50
2019-04-13T05:44:01.214Z,3.98
2019-04-13T05:47:04.795Z,3.70
2019-04-13T05:50:08.299Z,3.60
2019-04-13T05:53:11.805Z,3.83
2019-04-13T05:56:15.296Z,3.72
2019-04-13T05:59:21.162Z,4.40
2019-04-13T06:02:24.138Z,3.55
2019-04-13T06:05:28.666Z,3.83
2019-04-13T06:08:35.689Z,3.75
2019-04-13T06:11:37.533Z,4.12
2019-04-13T06:14:43.059Z,4.20
2019-04-13T06:17:46.580Z,3.60
2019-04-13T06:20:50.110Z,3.47
2019-04-13T06:23:53.563Z,4.33
2019-04-13T06:26:57.083Z,3.60
2019-04-13T06:30:02.935Z,4.20
2019-04-13T06:33:23.574Z,4.30
2019-04-13T06:36:27.141Z,4.12
2019-04-13T06:39:32.742Z,3.98
2019-04-13T06:42:35.921Z,3.75
2019-04-13T06:45:39.360Z,3.83
2019-04-13T06:48:42.879Z,3.75
2019-04-13T06:51:46.413Z,4.00
2019-04-13T06:54:49.886Z,4.08
2019-04-13T06:57:53.412Z,4.08
2019-04-13T07:00:59.006Z,3.83
2019-04-13T07:04:02.477Z,4.05
2019-04-13T07:07:11.129Z,3.80
2019-04-13T07:10:43.960Z,4.25
2019-04-13T07:13:46.291Z,4.30
2019-04-13T07:16:59.061Z,3.70
2019-04-13T07:20:02.543Z,4.37
2019-04-13T07:23:07.054Z,4.40
2019-04-13T07:26:11.265Z,3.52
2019-04-13T07:29:15.047Z,4.22
2019-04-13T07:32:18.635Z,4.05
2019-04-13T07:35:21.153Z,4.30
2019-04-13T07:38:24.582Z,3.62
2019-04-13T07:41:31.137Z,4.22
2019-04-13T07:44:40.015Z,4.05
2019-04-13T07:48:17.012Z,4.28
2019-04-13T07:51:33.089Z,4.15
2019-04-13T07:54:36.540Z,4.20
2019-04-13T07:57:41.160Z,3.87
2019-04-13T08:00:45.922Z,4.22
2019-04-13T08:03:49.565Z,4.10
2019-04-13T08:06:53.119Z,4.30
2019-04-13T08:09:56.719Z,4.42
2019-04-13T08:13:00.220Z,4.53
2019-04-13T08:16:05.676Z,4.92
2019-04-13T08:19:12.635Z,4.53
2019-04-13T08:22:16.865Z,4.78
2019-04-13T08:25:20.377Z,4.55
2019-04-13T08:28:23.795Z,4.75
2019-04-13T08:31:29.204Z,4.12
2019-04-13T08:34:32.723Z,4.28
2019-04-13T08:37:45.450Z,4.80
2019-04-13T08:40:46.303Z,4.80
2019-04-13T08:43:48.945Z,4.70
2019-04-13T08:46:53.475Z,4.50
2019-04-13T08:49:56.963Z,4.85
2019-04-13T08:53:00.474Z,4.55
2019-04-13T08:56:03.978Z,5.00
2019-04-13T08:59:07.511Z,4.80
2019-04-13T09:02:11.308Z,4.50
2019-04-13T09:05:14.890Z,4.30
2019-04-13T09:08:28.864Z,5.00
2019-04-13T09:11:24.657Z,4.78
2019-04-13T09:14:30.352Z,4.65
2019-04-13T09:17:41.926Z,4.75
2019-04-13T09:20:50.193Z,4.60
2019-04-13T09:23:53.744Z,4.70
2019-04-13T09:26:57.235Z,4.53
2019-04-13T09:30:00.753Z,4.60
2019-04-13T09:33:04.344Z,4.80
2019-04-13T09:36:07.920Z,4.85
2019-04-13T09:39:11.478Z,4.35
2019-04-13T09:42:14.919Z,4.20
2019-04-13T09:45:19.305Z,4.22
2019-04-13T09:48:22.792Z,4.53
2019-04-13T09:51:26.379Z,4.35
2019-04-13T09:54:29.937Z,4.42
2019-04-13T09:57:33.479Z,4.30
2019-04-13T10:00:37.228Z,4.53
2019-04-13T10:03:41.736Z,4.62
2019-04-13T10:06:45.350Z,4.17
2019-04-13T10:09:49.911Z,4.25
2019-04-13T10:12:59.355Z,4.25
2019-04-13T10:16:19.674Z,4.53
2019-04-13T10:19:23.573Z,4.72
2019-04-13T10:22:27.063Z,4.95
2019-04-13T10:25:31.579Z,4.25
2019-04-13T10:28:36.226Z,4.83
2019-04-13T10:31:39.683Z,4.28
2019-04-13T10:34:44.160Z,4.58
2019-04-13T10:37:47.672Z,4.28
2019-04-13T10:40:51.197Z,4.45
2019-04-13T10:43:54.658Z,4.40
2019-04-13T10:47:28.602Z,4.40
2019-04-13T10:50:41.028Z,4.58
2019-04-13T10:53:44.499Z,4.75
2019-04-13T10:56:48.230Z,4.80
2019-04-13T10:59:51.680Z,4.00
2019-04-13T11:02:56.202Z,4.62
2019-04-13T11:05:59.715Z,4.40
2019-04-13T11:09:04.460Z,4.22
2019-04-13T11:12:07.935Z,3.98
2019-04-13T11:15:11.439Z,4.20
2019-04-13T11:18:14.939Z,3.70
2019-04-13T11:21:18.448Z,3.70
2019-04-13T11:24:21.934Z,3.70
2019-04-13T11:27:25.483Z,3.98
2019-04-13T11:30:33.627Z,3.80
2019-04-13T11:33:36.325Z,3.87
2019-04-13T11:36:39.844Z,3.98
2019-04-13T11:39:43.333Z,3.67
2019-04-13T11:42:54.188Z,3.65
2019-04-13T11:46:05.080Z,3.58
2019-04-13T11:49:11.539Z,3.80
2019-04-13T11:52:14.942Z,3.60
2019-04-13T11:55:18.572Z,3.90
2019-04-13T11:58:22.157Z,3.95
2019-04-13T12:01:57.013Z,3.90
2019-04-13T12:05:17.879Z,3.55
2019-04-13T12:08:23.305Z,3.67
2019-04-13T12:11:46.479Z,3.77
2019-04-13T12:15:08.976Z,3.52
2019-04-13T12:18:31.521Z,3.60
2019-04-13T12:21:45.057Z,3.10
2019-04-13T12:24:48.557Z,3.80
2019-04-13T12:27:52.198Z,3.47
2019-04-13T12:30:55.736Z,3.20
2019-04-13T12:34:02.808Z,3.62
2019-04-13T12:37:04.523Z,3.75
2019-04-13T12:40:34.611Z,3.98
2019-04-13T12:43:36.996Z,4.10
2019-04-13T12:46:40.483Z,3.60
2019-04-13T12:49:45.044Z,3.52
2019-04-13T12:52:48.520Z,4.03
2019-04-13T12:55:56.063Z,3.45
2019-04-13T12:58:57.186Z,3.50
2019-04-13T13:02:08.253Z,3.42
2019-04-13T13:05:23.224Z,3.75
2019-04-13T13:08:27.744Z,3.45
2019-04-13T13:11:31.250Z,3.15
2019-04-13T13:14:34.742Z,3.50
2019-04-13T13:17:38.264Z,3.02
2019-04-13T13:20:41.757Z,3.15
2019-04-13T13:23:45.275Z,3.45
2019-04-13T13:26:51.880Z,3.35
2019-04-13T13:29:54.098Z,3.33
2019-04-13T13:32:59.116Z,3.22
2019-04-13T13:36:02.733Z,3.10
2019-04-13T13:39:06.645Z,3.25
2019-04-13T13:42:10.142Z,3.22
2019-04-13T13:45:13.589Z,2.62
2019-04-13T13:48:17.116Z,3.22
2019-04-13T13:51:20.531Z,3.37
2019-04-13T13:54:23.977Z,3.20
2019-04-13T13:57:28.467Z,3.22
2019-04-13T14:00:55.398Z,3.08
2019-04-13T14:03:59.856Z,3.08
2019-04-13T14:07:03.448Z,3.12
2019-04-13T14:10:16.391Z,3.15
2019-04-13T14:13:19.969Z,2.80
2019-04-13T14:16:23.466Z,2.90
2019-04-13T14:19:27.718Z,3.20
2019-04-13T14:22:32.316Z,2.72
2019-04-13T14:25:37.855Z,3.33
2019-04-13T14:28:41.448Z,3.10
2019-04-13T14:31:44.899Z,2.83
2019-04-13T14:34:50.729Z,2.70
2019-04-13T14:37:54.327Z,3.60
2019-04-13T14:40:57.758Z,3.00
2019-04-13T14:44:01.323Z,2.87
2019-04-13T14:47:04.745Z,3.15
2019-04-13T14:50:09.969Z,3.05
2019-04-13T14:53:14.997Z,3.10
2019-04-13T14:56:18.938Z,3.02
2019-04-13T14:59:22.373Z,3.00
2019-04-13T15:02:25.835Z,2.92
2019-04-13T15:05:30.387Z,2.80
2019-04-13T15:08:33.855Z,3.30
2019-04-13T15:11:37.353Z,3.00
2019-04-13T15:14:41.068Z,3.22
2019-04-13T15:17:51.967Z,3.35
2019-04-13T15:20:58.249Z,3.00
2019-04-13T15:24:00.778Z,3.05
2019-04-13T15:27:07.496Z,3.10
2019-04-13T15:30:12.763Z,2.75
2019-04-13T15:33:15.829Z,2.80
2019-04-13T15:36:23.201Z,3.25
2019-04-13T15:39:26.987Z,2.47
2019-04-13T15:42:38.948Z,3.35
2019-04-13T15:45:38.781Z,2.70
2019-04-13T15:48:41.102Z,2.45
2019-04-13T15:51:46.095Z,2.87
2019-04-13T15:54:49.918Z,2.67
2019-04-13T15:57:53.595Z,2.77
2019-04-13T16:00:57.121Z,3.10
2019-04-13T16:04:01.456Z,2.83
2019-04-13T16:07:05.363Z,2.90
2019-04-13T16:10:28.438Z,2.83
2019-04-13T16:13:32.590Z,2.47
2019-04-13T16:16:37.191Z,2.67
2019-04-13T16:19:41.695Z,2.60
2019-04-13T16:22:45.184Z,3.10
2019-04-13T16:25:48.752Z,2.60
2019-04-13T16:29:10.200Z,2.85
2019-04-13T16:32:29.617Z,2.52
2019-04-13T16:35:53.788Z,3.00
2019-04-13T16:39:02.584Z,2.65
2019-04-13T16:42:09.718Z,2.35
2019-04-13T16:45:34.062Z,2.83
2019-04-13T16:48:55.879Z,2.65
2019-04-13T16:52:07.059Z,2.75
2019-04-13T16:55:18.686Z,2.98
2019-04-13T16:58:39.988Z,2.70
2019-04-13T17:01:58.972Z,2.80
2019-04-13T17:05:05.708Z,3.00
2019-04-13T17:08:09.727Z,3.00
2019-04-13T17:11:14.997Z,2.87
2019-04-13T17:14:18.482Z,2.70
2019-04-13T17:17:22.150Z,2.52
2019-04-13T17:20:57.821Z,2.77
2019-04-13T17:24:11.561Z,2.87
2019-04-13T17:27:33.320Z,2.87
2019-04-13T17:30:53.329Z,3.00
2019-04-13T17:34:07.036Z,2.95
2019-04-13T17:37:12.984Z,3.58
2019-04-13T17:40:21.650Z,3.30
2019-04-13T17:43:50.076Z,2.95
2019-04-13T17:47:18.106Z,3.20
2019-04-13T17:50:43.167Z,2.80
2019-04-13T17:54:12.579Z,2.80
2019-04-13T17:57:28.600Z,2.80
2019-04-13T18:00:50.426Z,2.70
2019-04-13T18:04:14.365Z,2.45
2019-04-13T18:07:37.415Z,2.65
2019-04-13T18:10:59.371Z,2.98
2019-04-13T18:14:26.028Z,2.70
2019-04-13T18:17:38.877Z,2.90
2019-04-13T18:20:44.835Z,3.00
2019-04-13T18:23:48.438Z,2.65
2019-04-13T18:26:54.242Z,2.45
2019-04-13T18:30:07.709Z,2.90
2019-04-13T18:33:03.246Z,2.87
2019-04-13T18:36:07.106Z,2.92
2019-04-13T18:39:11.347Z,2.80
2019-04-13T18:42:15.987Z,2.60
2019-04-13T18:45:20.115Z,2.80
2019-04-13T18:48:25.003Z,2.42
2019-04-13T18:51:29.105Z,2.95
2019-04-13T18:54:32.666Z,2.75
2019-04-13T18:57:36.170Z,2.47
2019-04-13T19:00:39.656Z,3.00
2019-04-13T19:03:44.195Z,2.75
2019-04-13T19:06:47.683Z,2.77
2019-04-13T19:09:51.184Z,2.92
2019-04-13T19:13:03.714Z,2.95
2019-04-13T19:16:00.830Z,2.62
2019-04-13T19:19:04.382Z,2.95
2019-04-13T19:22:08.884Z,2.72
2019-04-13T19:25:12.510Z,2.52
2019-04-13T19:28:16.121Z,2.90
2019-04-13T19:31:19.591Z,2.75
2019-04-13T19:34:23.097Z,2.55
2019-04-13T19:37:26.566Z,2.55
2019-04-13T19:40:30.102Z,2.77
2019-04-13T19:43:33.601Z,2.77
2019-04-13T19:46:38.130Z,2.85
2019-04-13T19:49:41.611Z,2.40
2019-04-13T19:52:51.654Z,2.85
2019-04-13T19:55:55.313Z,2.35
2019-04-13T19:58:58.718Z,2.52
2019-04-13T20:02:02.189Z,2.80
2019-04-13T20:05:05.841Z,2.62
2019-04-13T20:08:09.342Z,2.62
2019-04-13T20:11:12.835Z,2.42
2019-04-13T20:14:19.305Z,2.50
2019-04-13T20:17:21.803Z,3.00
2019-04-13T20:20:25.222Z,2.80
2019-04-13T20:23:28.721Z,2.37
2019-04-13T20:26:32.240Z,2.92
2019-04-13T20:29:36.022Z,3.10
2019-04-13T20:32:40.668Z,2.87
2019-04-13T20:35:53.373Z,2.98
2019-04-13T20:38:49.667Z,3.12
2019-04-13T20:41:59.313Z,2.95
2019-04-13T20:44:58.579Z,2.95
2019-04-13T20:48:02.679Z,3.27
2019-04-13T20:51:08.229Z,2.62
2019-04-13T20:54:12.993Z,3.02
2019-04-13T20:57:17.428Z,2.50
2019-04-13T21:00:21.002Z,2.75
2019-04-13T21:03:25.331Z,2.80
2019-04-13T21:06:30.461Z,2.83
2019-04-13T21:09:34.148Z,3.35
2019-04-13T21:12:37.642Z,2.98
2019-04-13T21:15:42.095Z,2.95
2019-04-13T21:18:45.665Z,3.50
2019-04-13T21:21:49.923Z,2.95
2019-04-13T21:24:54.584Z,3.10
2019-04-13T21:27:59.537Z,3.08
2019-04-13T21:31:06.409Z,3.12
2019-04-13T21:34:10.044Z,3.05
2019-04-13T21:37:13.857Z,3.08
2019-04-13T21:40:18.662Z,3.10
2019-04-13T21:43:22.185Z,3.12
2019-04-13T21:46:26.300Z,2.95
2019-04-13T21:49:29.802Z,3.05
2019-04-13T21:52:43.622Z,3.25
2019-04-13T21:55:48.404Z,3.30
2019-04-13T21:58:53.350Z,3.17
2019-04-13T22:02:05.142Z,2.98
2019-04-13T22:05:09.695Z,3.42
2019-04-13T22:08:14.149Z,3.10
2019-04-13T22:11:19.032Z,3.40
2019-04-13T22:14:36.202Z,3.80
2019-04-13T22:17:29.123Z,3.62
2019-04-13T22:20:34.032Z,3.42
2019-04-13T22:23:38.899Z,3.60
2019-04-13T22:26:43.544Z,3.67
2019-04-13T22:29:55.336Z,3.22
2019-04-13T22:33:00.004Z,3.30
2019-04-13T22:36:14.248Z,3.22
2019-04-13T22:39:18.770Z,3.47
2019-04-13T22:42:23.036Z,3.65
2019-04-13T22:45:27.699Z,3.10
2019-04-13T22:48:40.498Z,3.60
2019-04-13T22:52:17.046Z,3.45
2019-04-13T22:55:42.510Z,3.52
2019-04-13T22:58:47.064Z,3.80
2019-04-13T23:02:16.932Z,3.00
2019-04-13T23:05:20.465Z,3.62
2019-04-13T23:08:24.893Z,3.60
2019-04-13T23:11:28.290Z,4.20
2019-04-13T23:14:32.995Z,3.47
2019-04-13T23:17:37.655Z,3.83
2019-04-13T23:20:41.348Z,3.70
2019-04-13T23:23:44.758Z,3.90
2019-04-13T23:26:49.480Z,3.83
2019-04-13T23:29:54.188Z,3.70
2019-04-13T23:32:57.809Z,3.60
2019-04-13T23:36:02.759Z,3.35
2019-04-13T23:39:08.434Z,3.33
2019-04-13T23:42:13.260Z,3.47
2019-04-13T23:45:26.963Z,3.55
2019-04-13T23:48:26.953Z,3.90
2019-04-13T23:51:31.584Z,4.22
2019-04-13T23:54:35.220Z,3.92
2019-04-13T23:58:01.740Z,3.40
